sensor_id;sensor_type;location;lat;lon;timestamp;P1;durP1;ratioP1;P2;durP2;ratioP2
42518;SDS011;28147;47.520;18.920;2022-10-31T00:00:57;22.02;;;12.43;;
42518;SDS011;28147;47.520;18.920;2022-10-31T00:03:22;18.73;;;11.68;;
42518;SDS011;28147;47.520;18.920;2022-10-31T00:05:48;19.25;;;11.30;;
42518;SDS011;28147;47.520;18.920;2022-10-31T00:08:15;25.58;;;11.90;;
42518;SDS011;28147;47.520;18.920;2022-10-31T00:10:42;18.48;;;11.30;;
42518;SDS011;28147;47.520;18.920;2022-10-31T00:13:09;21.17;;;12.55;;
42518;SDS011;28147;47.520;18.920;2022-10-31T00:15:35;21.15;;;12.13;;
42518;SDS011;28147;47.520;18.920;2022-10-31T00:18:02;23.02;;;13.50;;
42518;SDS011;28147;47.520;18.920;2022-10-31T00:20:29;20.88;;;12.30;;
42518;SDS011;28147;47.520;18.920;2022-10-31T00:22:58;19.05;;;12.45;;
42518;SDS011;28147;47.520;18.920;2022-10-31T00:25:25;20.42;;;12.05;;
42518;SDS011;28147;47.520;18.920;2022-10-31T00:27:52;21.38;;;13.50;;
42518;SDS011;28147;47.520;18.920;2022-10-31T00:30:17;22.75;;;12.90;;
42518;SDS011;28147;47.520;18.920;2022-10-31T00:32:42;24.00;;;13.68;;
42518;SDS011;28147;47.520;18.920;2022-10-31T00:35:08;20.00;;;11.57;;
42518;SDS011;28147;47.520;18.920;2022-10-31T00:37:33;22.08;;;12.68;;
42518;SDS011;28147;47.520;18.920;2022-10-31T00:39:58;18.48;;;11.63;;
42518;SDS011;28147;47.520;18.920;2022-10-31T00:42:24;16.60;;;10.20;;
42518;SDS011;28147;47.520;18.920;2022-10-31T00:44:49;18.50;;;11.15;;
42518;SDS011;28147;47.520;18.920;2022-10-31T00:47:15;23.40;;;11.52;;
42518;SDS011;28147;47.520;18.920;2022-10-31T00:49:40;20.33;;;11.30;;
42518;SDS011;28147;47.520;18.920;2022-10-31T00:52:05;18.63;;;10.85;;
42518;SDS011;28147;47.520;18.920;2022-10-31T00:54:31;17.75;;;10.50;;
42518;SDS011;28147;47.520;18.920;2022-10-31T00:56:56;17.98;;;11.13;;
42518;SDS011;28147;47.520;18.920;2022-10-31T00:59:22;16.92;;;11.38;;
42518;SDS011;28147;47.520;18.920;2022-10-31T01:01:48;16.45;;;9.73;;
42518;SDS011;28147;47.520;18.920;2022-10-31T01:04:13;19.02;;;11.57;;
42518;SDS011;28147;47.520;18.920;2022-10-31T01:06:39;17.60;;;10.38;;
42518;SDS011;28147;47.520;18.920;2022-10-31T01:09:04;17.45;;;10.70;;
42518;SDS011;28147;47.520;18.920;2022-10-31T01:11:30;17.40;;;10.77;;
42518;SDS011;28147;47.520;18.920;2022-10-31T01:13:55;17.77;;;11.10;;
42518;SDS011;28147;47.520;18.920;2022-10-31T01:16:22;18.55;;;11.68;;
42518;SDS011;28147;47.520;18.920;2022-10-31T01:18:49;16.48;;;10.50;;
42518;SDS011;28147;47.520;18.920;2022-10-31T01:21:16;20.48;;;11.45;;
42518;SDS011;28147;47.520;18.920;2022-10-31T01:23:46;18.65;;;10.45;;
42518;SDS011;28147;47.520;18.920;2022-10-31T01:26:16;14.95;;;10.23;;
42518;SDS011;28147;47.520;18.920;2022-10-31T01:29:05;17.70;;;11.20;;
42518;SDS011;28147;47.520;18.920;2022-10-31T01:31:35;14.73;;;10.00;;
42518;SDS011;28147;47.520;18.920;2022-10-31T01:34:02;15.77;;;9.80;;
42518;SDS011;28147;47.520;18.920;2022-10-31T01:36:30;15.57;;;9.75;;
42518;SDS011;28147;47.520;18.920;2022-10-31T01:39:01;15.18;;;9.23;;
42518;SDS011;28147;47.520;18.920;2022-10-31T01:41:32;16.80;;;9.07;;
42518;SDS011;28147;47.520;18.920;2022-10-31T01:44:00;14.13;;;9.02;;
42518;SDS011;28147;47.520;18.920;2022-10-31T01:46:35;14.50;;;9.57;;
42518;SDS011;28147;47.520;18.920;2022-10-31T01:49:05;14.95;;;9.52;;
42518;SDS011;28147;47.520;18.920;2022-10-31T01:51:37;13.45;;;8.73;;
42518;SDS011;28147;47.520;18.920;2022-10-31T01:54:07;15.65;;;9.38;;
42518;SDS011;28147;47.520;18.920;2022-10-31T01:56:36;16.38;;;9.48;;
42518;SDS011;28147;47.520;18.920;2022-10-31T01:59:07;16.38;;;10.13;;
42518;SDS011;28147;47.520;18.920;2022-10-31T02:01:35;14.45;;;9.05;;
42518;SDS011;28147;47.520;18.920;2022-10-31T02:04:02;14.50;;;9.65;;
42518;SDS011;28147;47.520;18.920;2022-10-31T02:09:12;13.73;;;9.25;;
42518;SDS011;28147;47.520;18.920;2022-10-31T02:11:39;15.35;;;9.02;;
42518;SDS011;28147;47.520;18.920;2022-10-31T02:14:06;13.43;;;8.70;;
42518;SDS011;28147;47.520;18.920;2022-10-31T02:16:31;13.98;;;9.05;;
42518;SDS011;28147;47.520;18.920;2022-10-31T02:18:56;13.18;;;8.00;;
42518;SDS011;28147;47.520;18.920;2022-10-31T02:21:23;14.70;;;8.25;;
42518;SDS011;28147;47.520;18.920;2022-10-31T02:29:57;11.63;;;7.55;;
42518;SDS011;28147;47.520;18.920;2022-10-31T02:35:30;8.70;;;6.25;;
42518;SDS011;28147;47.520;18.920;2022-10-31T02:38:07;15.98;;;7.53;;
42518;SDS011;28147;47.520;18.920;2022-10-31T02:40:48;10.30;;;6.95;;
42518;SDS011;28147;47.520;18.920;2022-10-31T02:43:40;11.73;;;7.28;;
42518;SDS011;28147;47.520;18.920;2022-10-31T02:46:24;17.13;;;6.63;;
42518;SDS011;28147;47.520;18.920;2022-10-31T02:49:00;12.18;;;7.53;;
42518;SDS011;28147;47.520;18.920;2022-10-31T02:51:35;11.68;;;6.95;;
42518;SDS011;28147;47.520;18.920;2022-10-31T02:54:00;13.55;;;7.28;;
42518;SDS011;28147;47.520;18.920;2022-10-31T02:56:26;10.63;;;6.35;;
42518;SDS011;28147;47.520;18.920;2022-10-31T02:58:53;10.27;;;6.90;;
42518;SDS011;28147;47.520;18.920;2022-10-31T03:01:44;13.93;;;6.93;;
42518;SDS011;28147;47.520;18.920;2022-10-31T03:05:03;13.10;;;6.90;;
42518;SDS011;28147;47.520;18.920;2022-10-31T03:07:25;11.85;;;7.00;;
42518;SDS011;28147;47.520;18.920;2022-10-31T03:12:40;12.07;;;7.75;;
42518;SDS011;28147;47.520;18.920;2022-10-31T03:18:00;11.05;;;7.13;;
42518;SDS011;28147;47.520;18.920;2022-10-31T03:21:01;16.55;;;6.68;;
42518;SDS011;28147;47.520;18.920;2022-10-31T03:23:32;11.48;;;7.25;;
42518;SDS011;28147;47.520;18.920;2022-10-31T03:26:03;11.30;;;6.75;;
42518;SDS011;28147;47.520;18.920;2022-10-31T03:28:33;11.75;;;7.05;;
42518;SDS011;28147;47.520;18.920;2022-10-31T03:31:11;13.23;;;7.43;;
42518;SDS011;28147;47.520;18.920;2022-10-31T03:33:41;14.80;;;7.68;;
42518;SDS011;28147;47.520;18.920;2022-10-31T03:36:10;15.18;;;7.45;;
42518;SDS011;28147;47.520;18.920;2022-10-31T03:38:38;12.65;;;6.82;;
42518;SDS011;28147;47.520;18.920;2022-10-31T03:41:07;13.60;;;7.65;;
42518;SDS011;28147;47.520;18.920;2022-10-31T03:43:40;12.05;;;7.22;;
42518;SDS011;28147;47.520;18.920;2022-10-31T03:46:09;13.45;;;7.70;;
42518;SDS011;28147;47.520;18.920;2022-10-31T03:48:35;11.73;;;7.05;;
42518;SDS011;28147;47.520;18.920;2022-10-31T03:54:51;11.57;;;6.90;;
42518;SDS011;28147;47.520;18.920;2022-10-31T03:59:42;15.48;;;7.40;;
42518;SDS011;28147;47.520;18.920;2022-10-31T04:02:16;12.10;;;7.10;;
42518;SDS011;28147;47.520;18.920;2022-10-31T04:04:44;11.50;;;7.20;;
42518;SDS011;28147;47.520;18.920;2022-10-31T04:07:12;11.25;;;7.35;;
42518;SDS011;28147;47.520;18.920;2022-10-31T04:09:39;11.88;;;6.75;;
42518;SDS011;28147;47.520;18.920;2022-10-31T04:12:08;10.82;;;6.70;;
42518;SDS011;28147;47.520;18.920;2022-10-31T04:14:37;10.90;;;6.65;;
42518;SDS011;28147;47.520;18.920;2022-10-31T04:17:05;10.45;;;6.28;;
42518;SDS011;28147;47.520;18.920;2022-10-31T04:19:35;12.35;;;7.25;;
42518;SDS011;28147;47.520;18.920;2022-10-31T04:22:00;12.40;;;7.53;;
42518;SDS011;28147;47.520;18.920;2022-10-31T04:24:26;10.77;;;7.10;;
42518;SDS011;28147;47.520;18.920;2022-10-31T04:26:51;10.93;;;6.03;;
42518;SDS011;28147;47.520;18.920;2022-10-31T04:29:17;12.85;;;7.68;;
42518;SDS011;28147;47.520;18.920;2022-10-31T04:31:42;11.73;;;7.03;;
42518;SDS011;28147;47.520;18.920;2022-10-31T04:34:08;12.85;;;6.75;;
42518;SDS011;28147;47.520;18.920;2022-10-31T04:36:33;11.32;;;6.85;;
42518;SDS011;28147;47.520;18.920;2022-10-31T04:38:58;9.77;;;6.53;;
42518;SDS011;28147;47.520;18.920;2022-10-31T04:41:24;12.75;;;7.45;;
42518;SDS011;28147;47.520;18.920;2022-10-31T04:43:49;12.27;;;6.57;;
42518;SDS011;28147;47.520;18.920;2022-10-31T04:46:15;13.05;;;7.40;;
42518;SDS011;28147;47.520;18.920;2022-10-31T04:48:40;11.68;;;7.25;;
42518;SDS011;28147;47.520;18.920;2022-10-31T04:51:05;11.43;;;7.13;;
42518;SDS011;28147;47.520;18.920;2022-10-31T04:53:31;14.13;;;8.13;;
42518;SDS011;28147;47.520;18.920;2022-10-31T04:55:59;12.45;;;7.95;;
42518;SDS011;28147;47.520;18.920;2022-10-31T04:58:25;12.70;;;7.07;;
42518;SDS011;28147;47.520;18.920;2022-10-31T05:00:52;13.10;;;7.22;;
42518;SDS011;28147;47.520;18.920;2022-10-31T05:03:18;13.05;;;7.53;;
42518;SDS011;28147;47.520;18.920;2022-10-31T05:05:43;12.93;;;7.75;;
42518;SDS011;28147;47.520;18.920;2022-10-31T05:08:09;12.48;;;7.28;;
42518;SDS011;28147;47.520;18.920;2022-10-31T05:10:34;11.63;;;6.97;;
42518;SDS011;28147;47.520;18.920;2022-10-31T05:13:00;11.50;;;7.43;;
42518;SDS011;28147;47.520;18.920;2022-10-31T05:15:26;11.68;;;6.82;;
42518;SDS011;28147;47.520;18.920;2022-10-31T05:17:52;12.05;;;6.97;;
42518;SDS011;28147;47.520;18.920;2022-10-31T05:20:20;10.55;;;6.07;;
42518;SDS011;28147;47.520;18.920;2022-10-31T05:22:47;12.85;;;6.72;;
42518;SDS011;28147;47.520;18.920;2022-10-31T05:25:14;11.57;;;6.80;;
42518;SDS011;28147;47.520;18.920;2022-10-31T05:27:41;12.93;;;6.05;;
42518;SDS011;28147;47.520;18.920;2022-10-31T05:30:09;9.13;;;5.70;;
42518;SDS011;28147;47.520;18.920;2022-10-31T05:32:39;8.90;;;5.47;;
42518;SDS011;28147;47.520;18.920;2022-10-31T05:35:11;10.38;;;5.20;;
42518;SDS011;28147;47.520;18.920;2022-10-31T05:37:38;9.73;;;5.93;;
42518;SDS011;28147;47.520;18.920;2022-10-31T05:40:04;9.82;;;6.05;;
42518;SDS011;28147;47.520;18.920;2022-10-31T05:42:31;10.05;;;6.10;;
42518;SDS011;28147;47.520;18.920;2022-10-31T05:44:57;10.75;;;5.75;;
42518;SDS011;28147;47.520;18.920;2022-10-31T05:47:22;11.80;;;6.05;;
42518;SDS011;28147;47.520;18.920;2022-10-31T05:49:48;8.88;;;5.40;;
42518;SDS011;28147;47.520;18.920;2022-10-31T05:52:14;9.82;;;5.97;;
42518;SDS011;28147;47.520;18.920;2022-10-31T05:54:39;9.90;;;5.57;;
42518;SDS011;28147;47.520;18.920;2022-10-31T05:57:05;11.88;;;6.78;;
42518;SDS011;28147;47.520;18.920;2022-10-31T05:59:30;12.02;;;5.78;;
42518;SDS011;28147;47.520;18.920;2022-10-31T06:01:56;10.10;;;5.85;;
42518;SDS011;28147;47.520;18.920;2022-10-31T06:04:21;10.07;;;5.65;;
42518;SDS011;28147;47.520;18.920;2022-10-31T06:06:47;10.07;;;5.80;;
42518;SDS011;28147;47.520;18.920;2022-10-31T06:09:12;12.95;;;6.72;;
42518;SDS011;28147;47.520;18.920;2022-10-31T06:11:37;9.98;;;6.15;;
42518;SDS011;28147;47.520;18.920;2022-10-31T06:14:03;11.25;;;6.20;;
42518;SDS011;28147;47.520;18.920;2022-10-31T06:16:31;10.70;;;6.10;;
42518;SDS011;28147;47.520;18.920;2022-10-31T06:18:56;12.70;;;7.05;;
42518;SDS011;28147;47.520;18.920;2022-10-31T06:21:22;11.85;;;6.45;;
42518;SDS011;28147;47.520;18.920;2022-10-31T06:23:47;12.05;;;6.07;;
42518;SDS011;28147;47.520;18.920;2022-10-31T06:26:13;10.45;;;6.05;;
42518;SDS011;28147;47.520;18.920;2022-10-31T06:28:38;13.13;;;7.07;;
42518;SDS011;28147;47.520;18.920;2022-10-31T06:31:03;10.98;;;6.68;;
42518;SDS011;28147;47.520;18.920;2022-10-31T06:33:29;11.35;;;6.32;;
42518;SDS011;28147;47.520;18.920;2022-10-31T06:35:55;10.98;;;5.75;;
42518;SDS011;28147;47.520;18.920;2022-10-31T06:38:20;12.23;;;6.53;;
42518;SDS011;28147;47.520;18.920;2022-10-31T06:40:45;10.25;;;6.25;;
42518;SDS011;28147;47.520;18.920;2022-10-31T06:43:11;11.75;;;6.32;;
42518;SDS011;28147;47.520;18.920;2022-10-31T06:45:36;11.05;;;6.63;;
42518;SDS011;28147;47.520;18.920;2022-10-31T06:48:02;11.23;;;6.90;;
42518;SDS011;28147;47.520;18.920;2022-10-31T06:50:28;12.55;;;6.10;;
42518;SDS011;28147;47.520;18.920;2022-10-31T06:52:54;11.13;;;6.20;;
42518;SDS011;28147;47.520;18.920;2022-10-31T06:55:21;11.15;;;6.45;;
42518;SDS011;28147;47.520;18.920;2022-10-31T06:57:51;12.27;;;5.95;;
42518;SDS011;28147;47.520;18.920;2022-10-31T07:00:18;10.93;;;6.10;;
42518;SDS011;28147;47.520;18.920;2022-10-31T07:02:52;10.70;;;5.80;;
42518;SDS011;28147;47.520;18.920;2022-10-31T07:05:18;10.13;;;5.47;;
42518;SDS011;28147;47.520;18.920;2022-10-31T07:07:43;10.32;;;5.90;;
42518;SDS011;28147;47.520;18.920;2022-10-31T07:10:09;15.15;;;5.88;;
42518;SDS011;28147;47.520;18.920;2022-10-31T07:12:34;11.35;;;5.82;;
42518;SDS011;28147;47.520;18.920;2022-10-31T07:14:59;10.38;;;5.43;;
42518;SDS011;28147;47.520;18.920;2022-10-31T07:17:25;12.40;;;6.20;;
42518;SDS011;28147;47.520;18.920;2022-10-31T07:19:50;10.88;;;6.40;;
42518;SDS011;28147;47.520;18.920;2022-10-31T07:22:15;11.30;;;6.57;;
42518;SDS011;28147;47.520;18.920;2022-10-31T07:24:41;14.90;;;6.68;;
42518;SDS011;28147;47.520;18.920;2022-10-31T07:27:06;13.40;;;6.20;;
42518;SDS011;28147;47.520;18.920;2022-10-31T07:29:32;12.02;;;6.95;;
42518;SDS011;28147;47.520;18.920;2022-10-31T07:32:00;10.73;;;6.13;;
42518;SDS011;28147;47.520;18.920;2022-10-31T07:34:26;11.85;;;7.25;;
42518;SDS011;28147;47.520;18.920;2022-10-31T07:36:53;11.05;;;6.80;;
42518;SDS011;28147;47.520;18.920;2022-10-31T07:39:19;12.70;;;6.75;;
42518;SDS011;28147;47.520;18.920;2022-10-31T07:41:44;10.90;;;6.25;;
42518;SDS011;28147;47.520;18.920;2022-10-31T07:44:09;13.43;;;6.85;;
42518;SDS011;28147;47.520;18.920;2022-10-31T07:46:35;11.13;;;6.30;;
42518;SDS011;28147;47.520;18.920;2022-10-31T07:49:00;12.73;;;6.85;;
42518;SDS011;28147;47.520;18.920;2022-10-31T07:51:26;12.20;;;7.28;;
42518;SDS011;28147;47.520;18.920;2022-10-31T07:53:51;10.55;;;6.05;;
42518;SDS011;28147;47.520;18.920;2022-10-31T07:56:17;12.27;;;6.15;;
42518;SDS011;28147;47.520;18.920;2022-10-31T07:58:42;11.63;;;6.85;;
42518;SDS011;28147;47.520;18.920;2022-10-31T08:01:07;11.85;;;6.78;;
42518;SDS011;28147;47.520;18.920;2022-10-31T08:03:33;11.13;;;6.40;;
42518;SDS011;28147;47.520;18.920;2022-10-31T08:05:58;13.32;;;7.45;;
42518;SDS011;28147;47.520;18.920;2022-10-31T08:08:24;12.60;;;7.03;;
42518;SDS011;28147;47.520;18.920;2022-10-31T08:10:49;14.32;;;7.50;;
42518;SDS011;28147;47.520;18.920;2022-10-31T08:13:14;15.93;;;7.05;;
42518;SDS011;28147;47.520;18.920;2022-10-31T08:15:40;14.00;;;6.90;;
42518;SDS011;28147;47.520;18.920;2022-10-31T08:18:10;13.48;;;7.10;;
42518;SDS011;28147;47.520;18.920;2022-10-31T08:20:38;10.38;;;6.45;;
42518;SDS011;28147;47.520;18.920;2022-10-31T08:23:04;10.77;;;6.07;;
42518;SDS011;28147;47.520;18.920;2022-10-31T08:25:31;12.18;;;7.07;;
42518;SDS011;28147;47.520;18.920;2022-10-31T08:27:57;12.73;;;7.38;;
42518;SDS011;28147;47.520;18.920;2022-10-31T08:30:24;12.00;;;6.90;;
42518;SDS011;28147;47.520;18.920;2022-10-31T08:33:02;14.02;;;7.80;;
42518;SDS011;28147;47.520;18.920;2022-10-31T08:35:29;13.82;;;7.15;;
42518;SDS011;28147;47.520;18.920;2022-10-31T08:37:56;12.80;;;6.80;;
42518;SDS011;28147;47.520;18.920;2022-10-31T08:40:22;11.48;;;7.18;;
42518;SDS011;28147;47.520;18.920;2022-10-31T08:45:47;13.90;;;7.13;;
42518;SDS011;28147;47.520;18.920;2022-10-31T08:48:14;14.75;;;7.95;;
42518;SDS011;28147;47.520;18.920;2022-10-31T08:50:41;13.13;;;7.38;;
42518;SDS011;28147;47.520;18.920;2022-10-31T08:53:11;14.05;;;7.13;;
42518;SDS011;28147;47.520;18.920;2022-10-31T08:55:37;15.23;;;7.32;;
42518;SDS011;28147;47.520;18.920;2022-10-31T08:58:04;17.75;;;7.80;;
42518;SDS011;28147;47.520;18.920;2022-10-31T09:00:32;14.90;;;7.60;;
42518;SDS011;28147;47.520;18.920;2022-10-31T09:03:00;14.85;;;7.68;;
42518;SDS011;28147;47.520;18.920;2022-10-31T09:05:27;17.27;;;7.85;;
42518;SDS011;28147;47.520;18.920;2022-10-31T09:08:00;12.63;;;7.22;;
42518;SDS011;28147;47.520;18.920;2022-10-31T09:10:26;12.45;;;7.30;;
42518;SDS011;28147;47.520;18.920;2022-10-31T09:12:56;18.30;;;8.45;;
42518;SDS011;28147;47.520;18.920;2022-10-31T09:15:27;15.05;;;7.93;;
42518;SDS011;28147;47.520;18.920;2022-10-31T09:17:53;14.23;;;7.63;;
42518;SDS011;28147;47.520;18.920;2022-10-31T09:20:19;16.00;;;8.43;;
42518;SDS011;28147;47.520;18.920;2022-10-31T09:22:45;12.57;;;7.70;;
42518;SDS011;28147;47.520;18.920;2022-10-31T09:25:11;17.67;;;7.95;;
42518;SDS011;28147;47.520;18.920;2022-10-31T09:27:37;14.00;;;7.43;;
42518;SDS011;28147;47.520;18.920;2022-10-31T09:30:03;14.23;;;7.82;;
42518;SDS011;28147;47.520;18.920;2022-10-31T09:32:29;18.02;;;8.82;;
42518;SDS011;28147;47.520;18.920;2022-10-31T09:34:54;14.32;;;8.27;;
42518;SDS011;28147;47.520;18.920;2022-10-31T09:37:20;14.07;;;7.97;;
42518;SDS011;28147;47.520;18.920;2022-10-31T09:39:45;14.50;;;8.02;;
42518;SDS011;28147;47.520;18.920;2022-10-31T09:50:44;12.98;;;7.78;;
42518;SDS011;28147;47.520;18.920;2022-10-31T09:53:34;12.38;;;7.53;;
42518;SDS011;28147;47.520;18.920;2022-10-31T09:56:15;17.77;;;8.85;;
42518;SDS011;28147;47.520;18.920;2022-10-31T09:58:46;20.58;;;8.93;;
42518;SDS011;28147;47.520;18.920;2022-10-31T10:09:57;22.33;;;10.10;;
42518;SDS011;28147;47.520;18.920;2022-10-31T10:18:05;24.25;;;11.23;;
42518;SDS011;28147;47.520;18.920;2022-10-31T10:23:21;23.17;;;11.15;;
42518;SDS011;28147;47.520;18.920;2022-10-31T10:25:50;30.17;;;12.48;;
42518;SDS011;28147;47.520;18.920;2022-10-31T10:28:32;21.52;;;10.70;;
42518;SDS011;28147;47.520;18.920;2022-10-31T10:31:20;26.50;;;12.10;;
42518;SDS011;28147;47.520;18.920;2022-10-31T10:34:11;23.42;;;11.35;;
42518;SDS011;28147;47.520;18.920;2022-10-31T10:36:45;23.48;;;12.02;;
42518;SDS011;28147;47.520;18.920;2022-10-31T10:39:18;28.83;;;12.55;;
42518;SDS011;28147;47.520;18.920;2022-10-31T10:41:48;27.15;;;12.32;;
42518;SDS011;28147;47.520;18.920;2022-10-31T10:44:33;28.80;;;11.95;;
42518;SDS011;28147;47.520;18.920;2022-10-31T10:47:21;30.40;;;13.13;;
42518;SDS011;28147;47.520;18.920;2022-10-31T10:50:14;30.05;;;12.15;;
42518;SDS011;28147;47.520;18.920;2022-10-31T10:56:02;29.02;;;12.13;;
42518;SDS011;28147;47.520;18.920;2022-10-31T10:58:41;34.50;;;14.25;;
42518;SDS011;28147;47.520;18.920;2022-10-31T11:01:14;30.05;;;13.65;;
42518;SDS011;28147;47.520;18.920;2022-10-31T11:03:40;29.30;;;13.07;;
42518;SDS011;28147;47.520;18.920;2022-10-31T11:06:16;30.13;;;13.68;;
42518;SDS011;28147;47.520;18.920;2022-10-31T11:08:45;33.45;;;13.20;;
42518;SDS011;28147;47.520;18.920;2022-10-31T11:11:18;27.60;;;12.23;;
42518;SDS011;28147;47.520;18.920;2022-10-31T11:13:51;29.97;;;13.87;;
42518;SDS011;28147;47.520;18.920;2022-10-31T11:19:05;24.55;;;12.73;;
42518;SDS011;28147;47.520;18.920;2022-10-31T11:21:32;32.97;;;13.48;;
42518;SDS011;28147;47.520;18.920;2022-10-31T11:24:03;29.25;;;13.52;;
42518;SDS011;28147;47.520;18.920;2022-10-31T11:26:35;32.88;;;13.90;;
42518;SDS011;28147;47.520;18.920;2022-10-31T11:29:04;29.80;;;13.40;;
42518;SDS011;28147;47.520;18.920;2022-10-31T11:31:31;30.90;;;14.00;;
42518;SDS011;28147;47.520;18.920;2022-10-31T11:34:00;34.22;;;13.90;;
42518;SDS011;28147;47.520;18.920;2022-10-31T11:36:32;33.92;;;15.02;;
42518;SDS011;28147;47.520;18.920;2022-10-31T11:39:02;33.27;;;13.57;;
42518;SDS011;28147;47.520;18.920;2022-10-31T11:44:04;30.75;;;13.13;;
42518;SDS011;28147;47.520;18.920;2022-10-31T11:46:39;28.80;;;13.25;;
42518;SDS011;28147;47.520;18.920;2022-10-31T11:49:17;28.00;;;12.68;;
42518;SDS011;28147;47.520;18.920;2022-10-31T11:51:50;27.33;;;13.20;;
42518;SDS011;28147;47.520;18.920;2022-10-31T11:54:23;31.10;;;13.70;;
42518;SDS011;28147;47.520;18.920;2022-10-31T11:57:25;26.00;;;12.35;;
42518;SDS011;28147;47.520;18.920;2022-10-31T11:59:54;26.73;;;13.30;;
42518;SDS011;28147;47.520;18.920;2022-10-31T12:02:22;36.30;;;13.65;;
42518;SDS011;28147;47.520;18.920;2022-10-31T12:04:57;27.70;;;14.32;;
42518;SDS011;28147;47.520;18.920;2022-10-31T12:07:24;27.25;;;13.23;;
42518;SDS011;28147;47.520;18.920;2022-10-31T12:09:50;30.98;;;13.57;;
42518;SDS011;28147;47.520;18.920;2022-10-31T12:15:34;33.30;;;13.93;;
42518;SDS011;28147;47.520;18.920;2022-10-31T12:26:41;32.05;;;13.55;;
42518;SDS011;28147;47.520;18.920;2022-10-31T12:43:06;28.60;;;14.10;;
42518;SDS011;28147;47.520;18.920;2022-10-31T12:53:45;32.28;;;15.43;;
42518;SDS011;28147;47.520;18.920;2022-10-31T12:56:36;25.77;;;13.70;;
42518;SDS011;28147;47.520;18.920;2022-10-31T12:59:20;26.77;;;14.18;;
42518;SDS011;28147;47.520;18.920;2022-10-31T13:01:51;27.85;;;15.93;;
42518;SDS011;28147;47.520;18.920;2022-10-31T13:07:12;28.52;;;14.15;;
42518;SDS011;28147;47.520;18.920;2022-10-31T13:10:19;28.85;;;14.45;;
42518;SDS011;28147;47.520;18.920;2022-10-31T13:12:44;22.95;;;12.65;;
42518;SDS011;28147;47.520;18.920;2022-10-31T13:15:15;30.10;;;13.13;;
42518;SDS011;28147;47.520;18.920;2022-10-31T13:17:47;21.48;;;11.88;;
42518;SDS011;28147;47.520;18.920;2022-10-31T13:23:07;22.45;;;12.13;;
42518;SDS011;28147;47.520;18.920;2022-10-31T13:25:40;28.73;;;12.00;;
42518;SDS011;28147;47.520;18.920;2022-10-31T13:28:17;26.77;;;12.40;;
42518;SDS011;28147;47.520;18.920;2022-10-31T13:30:50;26.45;;;13.07;;
42518;SDS011;28147;47.520;18.920;2022-10-31T13:38:38;25.27;;;11.25;;
42518;SDS011;28147;47.520;18.920;2022-10-31T13:41:28;21.35;;;10.30;;
42518;SDS011;28147;47.520;18.920;2022-10-31T13:44:40;20.48;;;10.27;;
42518;SDS011;28147;47.520;18.920;2022-10-31T13:47:02;18.20;;;10.30;;
42518;SDS011;28147;47.520;18.920;2022-10-31T13:52:15;23.33;;;10.68;;
42518;SDS011;28147;47.520;18.920;2022-10-31T13:54:50;18.98;;;9.77;;
42518;SDS011;28147;47.520;18.920;2022-10-31T14:00:00;16.15;;;8.68;;
42518;SDS011;28147;47.520;18.920;2022-10-31T14:02:33;18.30;;;9.98;;
42518;SDS011;28147;47.520;18.920;2022-10-31T14:05:05;21.35;;;10.15;;
42518;SDS011;28147;47.520;18.920;2022-10-31T14:07:43;19.05;;;9.98;;
42518;SDS011;28147;47.520;18.920;2022-10-31T14:10:31;19.75;;;10.05;;
42518;SDS011;28147;47.520;18.920;2022-10-31T14:13:13;19.98;;;10.65;;
42518;SDS011;28147;47.520;18.920;2022-10-31T14:15:52;20.30;;;9.63;;
42518;SDS011;28147;47.520;18.920;2022-10-31T14:18:39;18.00;;;9.02;;
42518;SDS011;28147;47.520;18.920;2022-10-31T14:21:16;16.70;;;8.85;;
42518;SDS011;28147;47.520;18.920;2022-10-31T14:23:50;15.30;;;8.70;;
42518;SDS011;28147;47.520;18.920;2022-10-31T14:28:52;18.30;;;9.85;;
42518;SDS011;28147;47.520;18.920;2022-10-31T14:31:39;19.33;;;9.20;;
42518;SDS011;28147;47.520;18.920;2022-10-31T14:37:08;17.90;;;9.70;;
42518;SDS011;28147;47.520;18.920;2022-10-31T14:45:25;18.58;;;9.77;;
42518;SDS011;28147;47.520;18.920;2022-10-31T14:50:54;21.13;;;11.15;;
42518;SDS011;28147;47.520;18.920;2022-10-31T14:53:29;18.98;;;11.82;;
42518;SDS011;28147;47.520;18.920;2022-10-31T14:55:58;25.15;;;12.68;;
42518;SDS011;28147;47.520;18.920;2022-10-31T14:58:35;24.80;;;12.38;;
42518;SDS011;28147;47.520;18.920;2022-10-31T15:03:46;18.25;;;10.85;;
42518;SDS011;28147;47.520;18.920;2022-10-31T15:06:12;19.77;;;10.50;;
42518;SDS011;28147;47.520;18.920;2022-10-31T15:08:40;27.60;;;13.90;;
42518;SDS011;28147;47.520;18.920;2022-10-31T15:11:14;21.90;;;11.27;;
42518;SDS011;28147;47.520;18.920;2022-10-31T15:13:41;19.75;;;10.68;;
42518;SDS011;28147;47.520;18.920;2022-10-31T15:16:08;20.25;;;11.07;;
42518;SDS011;28147;47.520;18.920;2022-10-31T15:18:36;16.45;;;10.52;;
42518;SDS011;28147;47.520;18.920;2022-10-31T15:21:11;17.88;;;10.18;;
42518;SDS011;28147;47.520;18.920;2022-10-31T15:23:45;19.55;;;10.35;;
42518;SDS011;28147;47.520;18.920;2022-10-31T15:26:15;19.33;;;9.90;;
42518;SDS011;28147;47.520;18.920;2022-10-31T15:28:46;20.25;;;10.63;;
42518;SDS011;28147;47.520;18.920;2022-10-31T15:31:22;18.55;;;10.20;;
42518;SDS011;28147;47.520;18.920;2022-10-31T15:33:47;20.80;;;11.82;;
42518;SDS011;28147;47.520;18.920;2022-10-31T15:36:21;16.50;;;10.00;;
42518;SDS011;28147;47.520;18.920;2022-10-31T15:38:48;22.30;;;11.80;;
42518;SDS011;28147;47.520;18.920;2022-10-31T15:44:20;18.77;;;9.82;;
42518;SDS011;28147;47.520;18.920;2022-10-31T15:49:27;18.90;;;10.77;;
42518;SDS011;28147;47.520;18.920;2022-10-31T15:51:57;18.20;;;11.18;;
42518;SDS011;28147;47.520;18.920;2022-10-31T15:54:29;18.40;;;10.63;;
42518;SDS011;28147;47.520;18.920;2022-10-31T15:56:55;18.45;;;10.13;;
42518;SDS011;28147;47.520;18.920;2022-10-31T15:59:22;21.85;;;11.95;;
42518;SDS011;28147;47.520;18.920;2022-10-31T16:01:58;20.40;;;11.20;;
42518;SDS011;28147;47.520;18.920;2022-10-31T16:04:25;21.20;;;10.90;;
42518;SDS011;28147;47.520;18.920;2022-10-31T16:09:59;21.48;;;11.30;;
42518;SDS011;28147;47.520;18.920;2022-10-31T16:12:35;22.75;;;11.65;;
42518;SDS011;28147;47.520;18.920;2022-10-31T16:15:12;20.85;;;11.23;;
42518;SDS011;28147;47.520;18.920;2022-10-31T16:17:40;23.70;;;12.55;;
42518;SDS011;28147;47.520;18.920;2022-10-31T16:20:16;23.20;;;11.70;;
42518;SDS011;28147;47.520;18.920;2022-10-31T16:22:47;21.27;;;11.13;;
42518;SDS011;28147;47.520;18.920;2022-10-31T16:25:57;23.00;;;11.30;;
42518;SDS011;28147;47.520;18.920;2022-10-31T16:28:04;22.98;;;12.18;;
42518;SDS011;28147;47.520;18.920;2022-10-31T16:30:43;25.25;;;13.63;;
42518;SDS011;28147;47.520;18.920;2022-10-31T16:35:55;20.35;;;11.30;;
42518;SDS011;28147;47.520;18.920;2022-10-31T16:38:21;26.92;;;11.30;;
42518;SDS011;28147;47.520;18.920;2022-10-31T16:40:47;20.98;;;11.85;;
42518;SDS011;28147;47.520;18.920;2022-10-31T16:43:14;25.58;;;12.23;;
42518;SDS011;28147;47.520;18.920;2022-10-31T16:45:43;22.23;;;12.77;;
42518;SDS011;28147;47.520;18.920;2022-10-31T16:48:11;20.50;;;10.38;;
42518;SDS011;28147;47.520;18.920;2022-10-31T16:50:40;22.60;;;11.10;;